Forside
METAR-TAF:

METAR-TAF

Lufthavne :

Rochester International Airport

Rochester, Minnesota, USA

Breddekreds: 43-54-15N, længdekreds: 092-29-30W, højde: 401 m

Aktuelle vejr

Denne rapport blev lavet for 7 minutter siden, kl. 09:54 UTC
Vind 10 kt fra nord
Temperatur 3°C
Fugtighed 93%
Tryk 1018 hPa
Sigt: 16.1 km
skyfri

METAR: KRST 230954Z 35010KT 10SM CLR 03/02 A3007 RMK AO2 SLP190 T00330017

Tid: 05:01 (10:01 UTC)

Vejrudsigter

Denne rapport blev lavet for 21 minutter siden, kl. 09:40 UTC
Foreløbig gælder fra 23 på 10 UTC til 24 på 06 UTC
Vind 10 kt fra nord
Sigt: 10 km
Spredte skyer i en højde af 25000 ft
Fra 24 på 0100 UTC
Vind 6 kt fra syd
Sigt: 10 km
skyfri

TAF: KRST 230940Z 2310/2406 36010KT P6SM SCT250 FM240100 19006KT P6SM SKC

Vejrobservationer og prognoser fra mere end 4000 lufthavne (METAR og TAF).

De gule og røde prikker repræsenterer de meteorologiske stationer.

Flyt musen over at se navnet på stationen.

Så klik over at se vejr observationer og prognoser.

At skifte det kort: Klik på de grønne knapper med et sort kors for at zoome ind; på den grønne knap med en bindestreg for at zoome ud; eller på de grønne pile for tilstødende kort.


METAR-TAF: